Seven Springs, North Carolina
Current Conditions -  °F | °C
As of 2:58 PM on Friday 21 Nov 2014 (Local Time) from KGSB Reporting Station
Clear Clear  
Wind Chill: 50°   Ceiling: Unl
Heat Index: 50°   Visibility: 10mi
Dew Point: 14°   Wind: 8mph
Humidity: 24%   Direction: 10°N
Pressure: 30.41"   Gusts: NA
Location:  35.23°N, 77.85°W
Report Text: KGSB 211958Z AUTO 01007KT 10SM CLR 10/M10 A3041 RMK AO2 SLP301 T01001101 $
Loading
Personal Weather Stations






























Interactive Weather Map New forecast layout! Learn more

10-Day Weather Forecast

Advertisements
Track Severe Weather on mobile